createdAt,value
2023-04-02T00:05:56.182Z,99.49
2023-04-02T00:21:10.403Z,99.71
2023-04-02T00:36:16.355Z,98.87
2023-04-02T00:51:43.304Z,98.58
2023-04-02T01:06:53.708Z,98.37
2023-04-02T01:22:07.574Z,98.09
2023-04-02T01:37:34.416Z,97.32
2023-04-02T01:52:42.577Z,97.28
2023-04-02T02:07:51.565Z,96.77
2023-04-02T02:23:00.429Z,97.16
2023-04-02T02:38:24.779Z,97.39
2023-04-02T02:53:30.647Z,97.75
2023-04-02T03:08:40.692Z,98.19
2023-04-02T03:23:49.247Z,97.84
2023-04-02T03:39:01.751Z,97.23
2023-04-02T03:54:11.913Z,97.00
2023-04-02T04:09:24.839Z,97.10
2023-04-02T04:24:32.946Z,97.08
2023-04-02T04:39:44.527Z,97.28
2023-04-02T04:54:50.503Z,97.04
2023-04-02T05:10:07.538Z,97.42
2023-04-02T05:25:23.724Z,99.67
2023-04-02T05:40:34.277Z,98.46
2023-04-02T05:55:45.814Z,97.81
2023-04-02T06:11:00.818Z,98.22
2023-04-02T06:26:09.241Z,98.66
2023-04-02T06:41:21.582Z,100.09
2023-04-02T06:56:42.212Z,102.05
2023-04-02T07:11:47.861Z,102.41
2023-04-02T07:26:53.746Z,102.88
2023-04-02T07:42:00.702Z,102.89
2023-04-02T07:57:06.670Z,102.75
2023-04-02T08:12:15.433Z,101.26
2023-04-02T08:27:21.055Z,98.62
2023-04-02T08:42:35.247Z,99.38
2023-04-02T08:57:47.195Z,94.62
2023-04-02T09:12:54.730Z,89.66
2023-04-02T09:28:03.826Z,87.31
2023-04-02T09:43:15.835Z,88.94
2023-04-02T09:58:21.500Z,85.15
2023-04-02T10:13:30.532Z,85.16
2023-04-02T10:28:49.582Z,82.87
2023-04-02T10:44:24.351Z,79.56
2023-04-02T10:59:33.759Z,84.77
2023-04-02T11:14:41.247Z,83.84
2023-04-02T11:29:49.135Z,84.33
2023-04-02T11:44:55.037Z,82.62
2023-04-02T12:00:18.441Z,79.33
2023-04-02T12:15:38.615Z,77.56
2023-04-02T12:30:44.373Z,78.47
2023-04-02T12:45:54.449Z,77.89
2023-04-02T13:01:18.719Z,78.88
2023-04-02T13:16:36.216Z,80.14
2023-04-02T13:31:41.913Z,79.69
2023-04-02T13:46:47.800Z,77.30
2023-04-02T14:01:55.232Z,80.39
2023-04-02T14:17:16.157Z,79.07
2023-04-02T14:32:27.543Z,79.82
2023-04-02T14:47:38.133Z,79.87
2023-04-02T15:02:47.838Z,80.79
2023-04-02T15:17:53.388Z,83.13
2023-04-02T15:33:21.370Z,78.47
2023-04-02T15:49:11.650Z,77.71
2023-04-02T16:04:29.429Z,76.54
2023-04-02T16:19:40.020Z,77.38
2023-04-02T16:34:52.815Z,78.96
2023-04-02T16:50:04.770Z,79.43
2023-04-02T17:05:18.734Z,80.43
2023-04-02T17:20:26.665Z,83.52
2023-04-02T17:35:38.821Z,88.63
2023-04-02T17:51:06.322Z,89.40
2023-04-02T18:06:18.266Z,92.46
2023-04-02T18:21:28.933Z,93.82
2023-04-02T18:36:45.269Z,92.97
2023-04-02T18:51:55.392Z,93.48
2023-04-02T19:07:06.343Z,94.96
2023-04-02T19:22:18.204Z,96.57
2023-04-02T19:37:32.281Z,97.94
2023-04-02T19:52:38.076Z,99.70
2023-04-02T20:07:43.716Z,99.93
2023-04-02T20:22:50.055Z,100.91
2023-04-02T20:37:55.686Z,101.42
2023-04-02T20:53:02.905Z,101.96
2023-04-02T21:08:08.712Z,103.38
2023-04-02T21:23:14.312Z,103.92
2023-04-02T21:38:20.300Z,104.12
2023-04-02T21:53:26.054Z,104.37
2023-04-02T22:08:31.838Z,104.30
2023-04-02T22:23:37.800Z,104.24
2023-04-02T22:38:43.695Z,104.24
2023-04-02T22:53:50.259Z,103.60
2023-04-02T23:08:59.207Z,103.82
2023-04-02T23:24:07.929Z,104.29
2023-04-02T23:39:15.522Z,104.67
2023-04-02T23:54:21.638Z,104.27
